Tiempo atmosférico en la estación meteorológica de Villadepera, Zamora (790 m.)



Fecha
DESCASC
Temp. máxima en grados centígrados (hora)
DESCASC
Temp. mínima en grados centígrados (hora)
DESCASC
Temp. media en grados centígrados
DESCASC
Racha de viento máxima en m/sg (hora)
DESCASC
Velocidad máxima media en intervalos de 10 minutos(hora)
DESCASC
Precipitaciones diarias en mm
DESCASC
Precipitaciones de 00:00 a 06:00 en mm
DESCASC
Precipitaciones de 06:00 a 12:00 en mm
DESCASC
Precipitaciones de 12:00 a 18:00 en mm
DESCASC
Precipitaciones de 18:00 a 24:00 en mm
DESCASC
17-09-2020 26.9 (16:40) 14.5 (23:59) 20.7 14.72 (23:20) 10.28 (23:20) 0.2 0 0 0 0.2
15-09-2020 26.7 (16:40) 14.6 (09:20) 20.7 10.56 (15:30) 6.39 (16:10) 0 0 0 0 0
14-09-2020 29 (15:50) 18.4 (07:40) 23.7 12.78 (16:40) 8.89 (16:20) 0 0 0 0 0
13-09-2020 32.7 (17:00) 16.4 (00:00) 24.6 9.17 (18:40) 6.94 (18:40) 0 0 0 0 0
12-09-2020 30.4 (16:40) 15.9 (08:00) 23.1 9.17 (08:50) 7.22 (08:50) 0 0 0 0 0
11-09-2020 29.5 (16:50) 14.7 (00:00) 22.1 8.33 (10:10) 6.11 (10:10) 0 0 0 0 0
10-09-2020 29 (16:50) 14.2 (00:00) 21.6 7.78 (04:30) 5.83 (04:30) 0 0 0 0 0
09-09-2020 28.6 (16:40) 12.2 (08:10) 20.4 7.22 (11:50) 5.28 (05:00) 0 0 0 0 0
08-09-2020 25.4 (17:40) 9.6 (00:00) 17.5 13.33 (05:50) 9.72 (04:10) 0 0 0 0 0
07-09-2020 22.7 (16:40) 10.8 (07:50) 16.8 15 (10:20) 10 (10:30) 0 0 0 0 0
06-09-2020 27.7 (17:30) 13.8 (00:00) 20.8 13.61 (02:00) 9.17 (02:10) 0 0 0 0 0
05-09-2020 31.7 (16:30) 17.6 (00:00) 24.7 12.22 (23:59) 7.22 (23:59) 0 0 0 0 0
04-09-2020 32.7 (17:40) 13.4 (00:00) 23.1 8.61 (14:40) 5.56 (18:20) 0 0 0 0 0
03-09-2020 32.9 (18:30) 13.6 (00:00) 23.3 6.94 (14:30) 4.72 (11:20) 0 0 0 0 0
02-09-2020 28.9 (18:30) 11.9 (00:00) 20.4 12.22 (00:20) 8.33 (09:50) 0 0 0 0 0
01-09-2020 28.8 (18:30) 13.7 (00:00) 21.2 9.44 (23:40) 6.11 (23:59) 0 0 0 0 0
31-08-2020 26.2 (18:30) 7.4 (00:00) 16.8 8.33 (18:00) 5 (07:00) 0 0 0 0 0
30-08-2020 21.4 (18:40) 7.7 (00:00) 14.5 10.28 (17:20) 5 (17:40) 0 0 0 0 0
29-08-2020 21.7 (17:30) 7.6 (00:00) 14.7 13.06 (15:50) 6.94 (16:10) 0 0 0 0 0
28-08-2020 24.5 (15:40) 12.8 (00:00) 18.7 13.33 (19:10) 9.44 (16:40) 0 0 0 0 0
27-08-2020 33 (18:30) 17.9 (00:00) 25.4 10.28 (18:20) 7.5 (18:20) 0 0 0 0 0
26-08-2020 33.9 (18:30) 15.8 (00:00) 24.9 9.72 (18:40) 5.56 (19:40) 0 0 0 0 0
25-08-2020 33.4 (18:40) 17.1 (00:00) 25.3 9.72 (15:30) 6.39 (17:20) 0 0 0 0 0
24-08-2020 33 (18:40) 13.1 (07:40) 23.1 8.61 (03:40) 6.39 (04:10) 0 0 0 0 0
23-08-2020 29.9 (18:40) 12.6 (00:00) 21.3 7.78 (12:20) 5.56 (09:40) 0 0 0 0 0
22-08-2020 28.7 (18:40) 11.6 (00:00) 20.2 8.33 (17:30) 4.72 (01:20) 0 0 0 0 0
21-08-2020 24.3 (18:40) 15.3 (07:40) 19.8 12.22 (17:10) 7.5 (16:30) 0 0 0 0 0
20-08-2020 27.4 (17:50) 15.6 (00:00) 21.5 16.39 (17:50) 11.39 (17:50) 10.6 0 0 0 10.6
19-08-2020 30.4 (18:40) 12.1 (00:00) 21.3 16.67 (16:20) 11.39 (16:30) 0 0 0 0 0

Gráficas

Temp. máximas Temp. mínimas Temp. medias Precipitaciones Rachas de viento máximas Velocidades máximas media en intervalos de 10 minutos

Datos horarios

Fecha y hora oficial Temperatura (ºC) Velocidad del viento (km/h) Dirección del viento Racha (km/h) Dirección de racha Precipitación (mm) Presión (hPa) Tendencia (hPa) Humedad (%)
2020-09-17 23:00:00 18.3 19 Sudoeste 34 Sudoeste 0 -- -- 72
2020-09-17 22:00:00 20 13 Sur 23 Sur 0 -- -- 68
2020-09-17 21:00:00 20.8 13 Sudoeste 31 Sur 0 -- -- 63
2020-09-17 20:00:00 22.1 20 Sudoeste 39 Sudoeste 0 -- -- 57
2020-09-17 19:00:00 23.8 30 Sudoeste 42 Sudoeste 0 -- -- 50
2020-09-17 18:00:00 25.4 32 Sudoeste 47 Sur 0 -- -- 44
2020-09-17 17:00:00 26.3 14 Sudeste 29 Sudeste 0 -- -- 39
2020-09-17 16:00:00 26.1 13 Sudeste 26 Sudeste 0 -- -- 41
2020-09-17 15:00:00 24.6 12 Este 23 Sudeste 0 -- -- 45
2020-09-17 14:00:00 24.7 10 Sudeste 22 Sur 0 -- -- 46
2020-09-17 13:00:00 23.1 13 Sur 19 Sur 0 -- -- 50
2020-09-17 12:00:00 22.7 5 Sur 15 Este 0 -- -- 54
2020-09-17 11:00:00 20.8 9 Este 15 Este 0 -- -- 59
2020-09-17 10:00:00 19.2 8 Este 14 Este 0 -- -- 67
2020-09-17 09:00:00 18.3 9 Este 19 Nordeste 0 -- -- 70
2020-09-17 08:00:00 18.5 13 Este 26 Este 0 -- -- 66
2020-09-17 07:00:00 19 12 Este 24 Este 0 -- -- 60
2020-09-17 06:00:00 19.6 16 Este 27 Sudeste 0 -- -- 53
2020-09-17 05:00:00 19.5 12 Este 24 Este 0 -- -- 50
2020-09-17 04:00:00 20.5 15 Este 27 Sudeste 0 -- -- 47
2020-09-17 03:00:00 20.4 11 Nordeste 17 Sudeste 0 -- -- 51
2020-09-17 02:00:00 20.2 7 Este 17 Nordeste 0 -- -- 51
2020-09-17 01:00:00 21.2 12 Norte 16 Norte 0 -- -- 47
2020-09-17 00:00:00 22 6 Norte 17 Noroeste 0 -- -- 43
2020-09-16 23:00:00 22 12 Noroeste 42 Oeste 0 -- -- 42
2020-09-16 22:00:00 23.5 8 Norte 15 Nordeste 0 -- -- 39
2020-09-16 21:00:00 24 9 Norte 12 Nordeste 0 -- -- 38
2020-09-16 20:00:00 24.7 9 Nordeste 17 Este 0 -- -- 37
2020-09-16 19:00:00 26 11 Este 22 Este 0 -- -- 36
2020-09-16 18:00:00 26.6 13 Este 27 Este 0 -- -- 35
2020-09-16 17:00:00 26.6 17 Este 28 Este 0 -- -- 34
2020-09-16 16:00:00 26.3 9 Este 27 Sudeste 0 -- -- 38
2020-09-16 15:00:00 26 10 Este 24 Este 0 -- -- 38
2020-09-16 14:00:00 24.8 10 Este 22 Sudeste 0 -- -- 42
2020-09-16 13:00:00 23.7 14 Este 24 Este 0 -- -- 44
2020-09-16 12:00:00 22.9 14 Este 23 Este 0 -- -- 47
2020-09-16 11:00:00 19.8 10 Este 14 Este 0 -- -- 55
2020-09-16 10:00:00 16.3 9 Este 14 Este 0 -- -- 66
2020-09-16 09:00:00 13.4 9 Este 10 Este 0 -- -- 74
2020-09-16 08:00:00 14.1 8 Este 9 Este 0 -- -- 70
2020-09-16 07:00:00 14.8 6 Este 6 Este 0 -- -- 67
2020-09-16 06:00:00 14.4 6 Este 7 Este 0 -- -- 69
2020-09-16 05:00:00 15.5 3 Nordeste 6 Sudoeste 0 -- -- 64
2020-09-16 04:00:00 16 5 Sur 7 Sudeste 0 -- -- 62
2020-09-16 03:00:00 16.8 5 Sudeste 7 Este 0 -- -- 59
2020-09-16 02:00:00 17.2 3 Nordeste 10 Sudoeste 0 -- -- 57
2020-09-16 01:00:00 18.1 8 Sudoeste 14 Sudoeste 0 -- -- 54
2020-09-16 00:00:00 17.8 12 Sudoeste 14 Sudoeste 0 -- -- 55
2020-09-15 23:00:00 18.8 11 Sudoeste 14 Sudoeste 0 -- -- 52
2020-09-15 22:00:00 19.9 13 Sudoeste 18 Sudoeste 0 -- -- 50
2020-09-15 21:00:00 22.1 13 Sudoeste 24 Sudoeste 0 -- -- 42
2020-09-15 20:00:00 24.6 17 Sudoeste 27 Sudoeste 0 -- -- 36
2020-09-15 19:00:00 26 10 Sudoeste 33 Sudoeste 0 -- -- 37
2020-09-15 18:00:00 26.3 14 Sudoeste 35 Sudoeste 0 -- -- 37
2020-09-15 17:00:00 25.9 14 Sudoeste 36 Sudoeste 0 -- -- 37
2020-09-15 16:00:00 26.3 18 Sudoeste 38 Sudoeste 0 -- -- 36
2020-09-15 15:00:00 25 19 Sudoeste 37 Sudoeste 0 -- -- 42
2020-09-15 14:00:00 25.1 19 Sur 33 Sur 0 -- -- 44
2020-09-15 13:00:00 22.9 18 Sur 27 Sudoeste 0 -- -- 54
2020-09-15 12:00:00 22.1 12 Sur 21 Sudeste 0 -- -- 63
2020-09-15 11:00:00 19.3 6 Este 13 Este 0 -- -- 73
2020-09-15 10:00:00 16.2 3 Este 8 Este 0 -- -- 87
2020-09-15 09:00:00 14.9 0 Calma 4 Sudoeste 0 -- -- 87
2020-09-15 08:00:00 14.8 2 Sudoeste 6 Oeste 0 -- -- 88
2020-09-15 07:00:00 14.7 3 Noroeste 13 Oeste 0 -- -- 89
2020-09-15 06:00:00 15.3 13 Oeste 17 Oeste 0 -- -- 87
2020-09-15 05:00:00 16 13 Oeste 15 Oeste 0 -- -- 83
2020-09-15 04:00:00 16.7 12 Oeste 15 Sudoeste 0 -- -- 80
2020-09-15 03:00:00 17.9 4 Sudoeste 8 Sudeste 0 -- -- 73
2020-09-15 02:00:00 17.6 8 Sudeste 12 Este 0 -- -- 72
2020-09-15 01:00:00 18.9 10 Oeste 17 Oeste 0 -- -- 66
2020-09-15 00:00:00 19.8 11 Oeste 15 Oeste 0 -- -- 61
2020-09-14 23:00:00 20.7 13 Oeste 20 Oeste 0 -- -- 57
2020-09-14 22:00:00 21 10 Sudoeste 17 Sudoeste 0 -- -- 50
2020-09-14 21:00:00 23.8 14 Oeste 36 Sudoeste 0 -- -- 42
2020-09-14 20:00:00 26.1 27 Sudoeste 40 Sudoeste 0 -- -- 36
2020-09-14 19:00:00 27.5 29 Sudoeste 45 Sudoeste 0 -- -- 35
2020-09-14 18:00:00 27 26 Sudoeste 44 Sudoeste 0 -- -- 39
2020-09-14 17:00:00 28.7 28 Sudoeste 46 Sudoeste 0 -- -- 37
2020-09-14 16:00:00 28.8 30 Sudoeste 44 Sudoeste 0 -- -- 38
2020-09-14 15:00:00 27 15 Sudoeste 41 Sur 0 -- -- 41
2020-09-14 14:00:00 27.6 23 Sur 40 Sur 0 -- -- 40
2020-09-14 13:00:00 25.6 18 Sur 30 Sur 0 -- -- 46
2020-09-14 12:00:00 22.2 12 Sudoeste 17 Sudoeste 0 -- -- 59
2020-09-14 11:00:00 20 4 Sudoeste 11 Este 0 -- -- 66
2020-09-14 10:00:00 18.6 4 Sur 7 Sudoeste 0 -- -- 63
2020-09-14 09:00:00 19 4 Sudoeste 10 Sudoeste 0 -- -- 59
2020-09-14 08:00:00 18.5 9 Oeste 12 Sudoeste 0 -- -- 59
2020-09-14 07:00:00 18.8 10 Sudoeste 15 Sur 0 -- -- 56
2020-09-14 06:00:00 19.3 8 Sur 12 Sur 0 -- -- 49
2020-09-14 05:00:00 20.1 6 Sudeste 9 Sudeste 0 -- -- 46
2020-09-14 04:00:00 20.1 3 Oeste 18 Oeste 0 -- -- 45
2020-09-14 03:00:00 20.7 19 Sudoeste 30 Oeste 0 -- -- 44
2020-09-14 02:00:00 22.5 14 Sudeste 17 Sudeste 0 -- -- 39
2020-09-14 01:00:00 23 10 Sudeste 12 Sudeste 0 -- -- 37
2020-09-14 00:00:00 24.4 5 Sur 8 Sur 0 -- -- 35
2020-09-13 23:00:00 24.9 5 Sur 9 Sudoeste 0 -- -- 34
2020-09-13 22:00:00 25.3 6 Sudoeste 10 Sudoeste 0 -- -- 32
2020-09-13 21:00:00 26.6 8 Sudoeste 12 Sudoeste 0 -- -- 30
2020-09-13 20:00:00 28.8 11 Oeste 27 Sudoeste 0 -- -- 27
2020-09-13 19:00:00 29.9 21 Sudoeste 33 Sudoeste 0 -- -- 26
2020-09-13 18:00:00 31.9 9 Sur 25 Sur 0 -- -- 24
2020-09-13 17:00:00 32.7 10 Sudoeste 26 Sur 0 -- -- 23
2020-09-13 16:00:00 31.8 8 Este 22 Sur 0 -- -- 25
2020-09-13 15:00:00 30.4 8 Sudoeste 27 Sur 0 -- -- 26
2020-09-13 14:00:00 28.5 7 Sur 16 Este 0 -- -- 28
2020-09-13 13:00:00 27.2 12 Este 19 Este 0 -- -- 30
2020-09-13 12:00:00 24.6 14 Nordeste 23 Este 0 -- -- 35
2020-09-13 11:00:00 22 16 Este 25 Nordeste 0 -- -- 39
2020-09-13 10:00:00 19.7 18 Nordeste 26 Nordeste 0 -- -- 40
2020-09-13 09:00:00 17.5 17 Nordeste 27 Nordeste 0 -- -- 46
2020-09-13 08:00:00 16.5 16 Nordeste 23 Nordeste 0 -- -- 48
2020-09-13 07:00:00 17 18 Nordeste 24 Nordeste 0 -- -- 47
2020-09-13 06:00:00 16.9 19 Nordeste 29 Nordeste 0 -- -- 47
2020-09-13 05:00:00 17.9 21 Nordeste 28 Nordeste 0 -- -- 43
2020-09-13 04:00:00 18.2 16 Nordeste 22 Nordeste 0 -- -- 39
2020-09-13 03:00:00 18.8 13 Nordeste 21 Nordeste 0 -- -- 37
2020-09-13 02:00:00 19.4 12 Este 23 Este 0 -- -- 35
2020-09-13 01:00:00 21.5 15 Este 27 Este 0 -- -- 31
2020-09-13 00:00:00 22.9 15 Nordeste 26 Nordeste 0 -- -- 31
2020-09-12 23:00:00 23.5 16 Nordeste 22 Nordeste 0 -- -- 32
2020-09-12 22:00:00 24.4 15 Nordeste 21 Nordeste 0 -- -- 31
2020-09-12 21:00:00 25.3 14 Nordeste 17 Nordeste 0 -- -- 29
2020-09-12 20:00:00 27.8 17 Nordeste 26 Nordeste 0 -- -- 26
2020-09-12 19:00:00 29.5 15 Nordeste 21 Este 0 -- -- 25
2020-09-12 18:00:00 29.7 12 Este 24 Nordeste 0 -- -- 24
2020-09-12 17:00:00 30.2 14 Sudeste 27 Este 0 -- -- 24
2020-09-12 16:00:00 29.6 10 Sudeste 32 Este 0 -- -- 26
2020-09-12 15:00:00 29.4 18 Este 31 Este 0 -- -- 25
2020-09-12 14:00:00 27.8 21 Este 32 Este 0 -- -- 30
2020-09-12 13:00:00 26 20 Este 30 Este 0 -- -- 40
2020-09-12 12:00:00 23.8 18 Este 27 Este 0 -- -- 46
2020-09-12 11:00:00 21.2 15 Nordeste 27 Nordeste 0 -- -- 54
2020-09-12 10:00:00 19.2 16 Nordeste 30 Nordeste 0 -- -- 63
2020-09-12 09:00:00 17.2 24 Nordeste 33 Nordeste 0 -- -- 69
2020-09-12 08:00:00 15.9 9 Nordeste 30 Nordeste 0 -- -- 71
2020-09-12 07:00:00 16.2 17 Nordeste 23 Nordeste 0 -- -- 69
2020-09-12 06:00:00 16.3 18 Nordeste 22 Nordeste 0 -- -- 62
2020-09-12 05:00:00 16.9 16 Nordeste 22 Nordeste 0 -- -- 54
2020-09-12 04:00:00 17.4 11 Nordeste 15 Nordeste 0 -- -- 49
2020-09-12 03:00:00 18.7 9 Nordeste 20 Nordeste 0 -- -- 46
2020-09-12 02:00:00 20 12 Nordeste 20 Nordeste 0 -- -- 44
2020-09-12 01:00:00 21.7 7 Este 10 Este 0 -- -- 39
2020-09-12 00:00:00 22.9 6 Este 8 Este 0 -- -- 37
2020-09-11 23:00:00 24 5 Este 8 Este 0 -- -- 35
2020-09-11 22:00:00 24.3 5 Este 9 Sudeste 0 -- -- 35
2020-09-11 21:00:00 25.1 6 Este 10 Sudeste 0 -- -- 33
2020-09-11 20:00:00 26.1 6 Este 18 Este 0 -- -- 32
2020-09-11 19:00:00 28.2 8 Este 19 Este 0 -- -- 29
2020-09-11 18:00:00 29.2 4 Noroeste 24 Este 0 -- -- 28
2020-09-11 17:00:00 29.3 8 Este 16 Sur 0 -- -- 28
2020-09-11 16:00:00 28.7 9 Sudoeste 23 Nordeste 0 -- -- 29
2020-09-11 15:00:00 28 12 Sudeste 21 Este 0 -- -- 31
2020-09-11 14:00:00 26.2 12 Este 22 Este 0 -- -- 36
2020-09-11 13:00:00 24.3 15 Este 30 Este 0 -- -- 42
2020-09-11 12:00:00 22.4 20 Este 29 Este 0 -- -- 47
2020-09-11 11:00:00 20.7 19 Este 30 Nordeste 0 -- -- 54
2020-09-11 10:00:00 18.3 20 Nordeste 27 Nordeste 0 -- -- 60
2020-09-11 09:00:00 16.2 17 Nordeste 27 Nordeste 0 -- -- 66
2020-09-11 08:00:00 14.7 16 Nordeste 24 Nordeste 0 -- -- 70
2020-09-11 07:00:00 14.9 15 Nordeste 23 Nordeste 0 -- -- 68
2020-09-11 06:00:00 15.8 17 Nordeste 24 Nordeste 0 -- -- 65
2020-09-11 05:00:00 16.6 18 Nordeste 26 Nordeste 0 -- -- 62
2020-09-11 04:00:00 17 16 Nordeste 23 Nordeste 0 -- -- 58
2020-09-11 03:00:00 17.4 11 Nordeste 21 Nordeste 0 -- -- 51
2020-09-11 02:00:00 19.2 14 Nordeste 21 Nordeste 0 -- -- 42
2020-09-11 01:00:00 21 0 Calma 8 Este 0 -- -- 37
2020-09-11 00:00:00 21.8 7 Este 10 Este 0 -- -- 36
2020-09-10 23:00:00 22.3 8 Este 12 Sudeste 0 -- -- 35
2020-09-10 22:00:00 23 11 Este 15 Este 0 -- -- 33
2020-09-10 21:00:00 24.1 10 Este 15 Este 0 -- -- 32
2020-09-10 20:00:00 26.5 8 Este 21 Este 0 -- -- 29
2020-09-10 19:00:00 28 15 Este 21 Este 0 -- -- 28
2020-09-10 18:00:00 28.6 8 Nordeste 21 Este 0 -- -- 26
2020-09-10 17:00:00 28.8 12 Nordeste 21 Sudeste 0 -- -- 27
2020-09-10 16:00:00 28 10 Este 19 Este 0 -- -- 29
2020-09-10 15:00:00 27.3 5 Sur 18 Nordeste 0 -- -- 30
2020-09-10 14:00:00 25.6 9 Este 21 Este 0 -- -- 37
2020-09-10 13:00:00 24.2 10 Este 20 Nordeste 0 -- -- 41
2020-09-10 12:00:00 22.1 9 Este 23 Este 0 -- -- 47
2020-09-10 11:00:00 20.2 17 Nordeste 26 Nordeste 0 -- -- 52
2020-09-10 10:00:00 18.4 17 Nordeste 24 Nordeste 0 -- -- 57
2020-09-10 09:00:00 15.8 15 Nordeste 22 Nordeste 0 -- -- 66
2020-09-10 08:00:00 14.4 15 Nordeste 22 Nordeste 0 -- -- 71
2020-09-10 07:00:00 14.2 11 Norte 26 Nordeste 0 -- -- 73
2020-09-10 06:00:00 14.9 18 Nordeste 28 Nordeste 0 -- -- 70
2020-09-10 05:00:00 15.7 20 Nordeste 28 Nordeste 0 -- -- 66
2020-09-10 04:00:00 16.2 19 Nordeste 25 Nordeste 0 -- -- 63
2020-09-10 03:00:00 16.8 14 Nordeste 19 Nordeste 0 -- -- 60
2020-09-10 02:00:00 17.7 12 Nordeste 22 Nordeste 0 -- -- 53
2020-09-10 01:00:00 19.2 12 Nordeste 20 Nordeste 0 -- -- 37
2020-09-10 00:00:00 21 3 Este 6 Norte 0 -- -- 31
2020-09-09 23:00:00 22.2 3 Este 9 Sudeste 0 -- -- 29
2020-09-09 22:00:00 22.9 6 Este 10 Este 0 -- -- 28
2020-09-09 21:00:00 24.1 6 Este 12 Este 0 -- -- 27
2020-09-09 20:00:00 26.2 9 Nordeste 18 Este 0 -- -- 25
2020-09-09 19:00:00 27.5 5 Este 24 Este 0 -- -- 23
2020-09-09 18:00:00 27.9 15 Este 24 Este 0 -- -- 23
2020-09-09 17:00:00 28.2 12 Nordeste 19 Sur 0 -- -- 23
2020-09-09 16:00:00 28.3 9 Sudoeste 19 Sudoeste 0 -- -- 23
2020-09-09 15:00:00 26.7 5 Noroeste 17 Norte 0 -- -- 26
2020-09-09 14:00:00 25.1 9 Este 18 Este 0 -- -- 30
2020-09-09 13:00:00 23.1 10 Este 22 Este 0 -- -- 35
2020-09-09 12:00:00 21.2 13 Nordeste 26 Este 0 -- -- 40
2020-09-09 11:00:00 19.3 11 Este 21 Nordeste 0 -- -- 44
2020-09-09 10:00:00 16.2 15 Nordeste 22 Nordeste 0 -- -- 53
2020-09-09 09:00:00 13.8 17 Nordeste 23 Nordeste 0 -- -- 60
2020-09-09 08:00:00 12.3 17 Nordeste 21 Nordeste 0 -- -- 65
2020-09-09 07:00:00 12.4 15 Nordeste 20 Nordeste 0 -- -- 63
2020-09-09 06:00:00 13.4 13 Nordeste 24 Nordeste 0 -- -- 60
2020-09-09 05:00:00 14.1 19 Nordeste 23 Nordeste 0 -- -- 56
2020-09-09 04:00:00 14.4 13 Nordeste 23 Nordeste 0 -- -- 53
2020-09-09 03:00:00 15.6 14 Nordeste 23 Nordeste 0 -- -- 46
2020-09-09 02:00:00 16.3 14 Nordeste 22 Nordeste 0 -- -- 45
2020-09-09 01:00:00 17.8 17 Nordeste 26 Nordeste 0 -- -- 40
2020-09-09 00:00:00 18.4 14 Nordeste 20 Nordeste 0 -- -- 39
2020-09-08 23:00:00 19.3 12 Nordeste 17 Nordeste 0 -- -- 37
2020-09-08 22:00:00 19.9 12 Nordeste 14 Nordeste 0 -- -- 33
2020-09-08 21:00:00 21.4 12 Nordeste 15 Nordeste 0 -- -- 30
2020-09-08 20:00:00 23.7 13 Nordeste 27 Este 0 -- -- 27
2020-09-08 19:00:00 25 12 Nordeste 27 Este 0 -- -- 24
2020-09-08 18:00:00 25.3 21 Nordeste 33 Nordeste 0 -- -- 22
2020-09-08 17:00:00 24.9 18 Nordeste 37 Nordeste 0 -- -- 26
2020-09-08 16:00:00 23.5 16 Este 45 Nordeste 0 -- -- 32
2020-09-08 15:00:00 22.6 22 Nordeste 41 Nordeste 0 -- -- 33
2020-09-08 14:00:00 21.2 22 Nordeste 39 Este 0 -- -- 37
2020-09-08 13:00:00 19.6 21 Nordeste 39 Nordeste 0 -- -- 44
2020-09-08 12:00:00 17.2 23 Nordeste 36 Nordeste 0 -- -- 52
2020-09-08 11:00:00 15.1 22 Nordeste 44 Nordeste 0 -- -- 61
2020-09-08 10:00:00 12.7 28 Nordeste 44 Nordeste 0 -- -- 71
2020-09-08 09:00:00 10.9 26 Nordeste 39 Este 0 -- -- 76
2020-09-08 08:00:00 9.6 20 Nordeste 37 Nordeste 0 -- -- 81
2020-09-08 07:00:00 9.7 23 Nordeste 45 Nordeste 0 -- -- 79
2020-09-08 06:00:00 10.1 33 Nordeste 48 Nordeste 0 -- -- 76
2020-09-08 05:00:00 10.3 29 Nordeste 45 Nordeste 0 -- -- 74
2020-09-08 04:00:00 11 31 Nordeste 42 Nordeste 0 -- -- 68
2020-09-08 03:00:00 11.5 26 Nordeste 44 Nordeste 0 -- -- 63
2020-09-08 02:00:00 12.1 24 Nordeste 36 Este 0 -- -- 64
2020-09-08 01:00:00 13.4 20 Nordeste 42 Nordeste 0 -- -- 63
2020-09-08 00:00:00 14.8 19 Este 42 Nordeste 0 -- -- 60
2020-09-07 23:00:00 16.2 15 Nordeste 37 Este 0 -- -- 55
2020-09-07 22:00:00 17.2 19 Este 33 Nordeste 0 -- -- 49
2020-09-07 21:00:00 18.7 20 Este 40 Nordeste 0 -- -- 44
2020-09-07 20:00:00 20.7 22 Nordeste 37 Nordeste 0 -- -- 39
2020-09-07 19:00:00 22.1 24 Nordeste 39 Nordeste 0 -- -- 36
2020-09-07 18:00:00 22.7 24 Nordeste 42 Este 0 -- -- 34
2020-09-07 17:00:00 22.6 25 Nordeste 42 Nordeste 0 -- -- 34
2020-09-07 16:00:00 21.8 25 Este 45 Nordeste 0 -- -- 38
2020-09-07 15:00:00 21.2 28 Nordeste 45 Nordeste 0 -- -- 41
2020-09-07 14:00:00 20.3 30 Nordeste 48 Nordeste 0 -- -- 44
2020-09-07 13:00:00 18.9 30 Este 50 Este 0 -- -- 47
2020-09-07 12:00:00 17.2 32 Nordeste 51 Este 0 -- -- 51
2020-09-07 11:00:00 15.4 30 Nordeste 54 Este 0 -- -- 59
2020-09-07 10:00:00 13.6 28 Nordeste 42 Este 0 -- -- 70
2020-09-07 09:00:00 11.9 20 Nordeste 32 Nordeste 0 -- -- 79
2020-09-07 08:00:00 10.8 18 Nordeste 30 Nordeste 0 -- -- 84
2020-09-07 07:00:00 11.2 15 Nordeste 26 Nordeste 0 -- -- 80
2020-09-07 06:00:00 11.4 15 Nordeste 26 Este 0 -- -- 77
2020-09-07 05:00:00 11.7 15 Nordeste 28 Este 0 -- -- 75
2020-09-07 04:00:00 12.3 17 Este 37 Nordeste 0 -- -- 74
2020-09-07 03:00:00 12.9 24 Nordeste 41 Este 0 -- -- 71
2020-09-07 02:00:00 13.6 27 Este 42 Este 0 -- -- 66
2020-09-07 01:00:00 14.3 25 Nordeste 48 Este 0 -- -- 62
2020-09-07 00:00:00 15.3 27 Nordeste 46 Nordeste 0 -- -- 59
2020-09-06 23:00:00 17.1 27 Nordeste 44 Este 0 -- -- 56
2020-09-06 22:00:00 20.4 22 Este 34 Este 0 -- -- 44
2020-09-06 21:00:00 23.5 16 Este 27 Este 0 -- -- 44
2020-09-06 20:00:00 25.8 16 Este 25 Este 0 -- -- 38
2020-09-06 19:00:00 27 12 Nordeste 25 Nordeste 0 -- -- 37
2020-09-06 18:00:00 27.3 13 Este 23 Nordeste 0 -- -- 37
2020-09-06 17:00:00 27.4 13 Este 27 Este 0 -- -- 37
2020-09-06 16:00:00 27 14 Nordeste 30 Este 0 -- -- 38
2020-09-06 15:00:00 25.9 19 Nordeste 32 Este 0 -- -- 40
2020-09-06 14:00:00 24.6 16 Nordeste 32 Este 0 -- -- 44
2020-09-06 13:00:00 22.7 22 Nordeste 33 Nordeste 0 -- -- 49
2020-09-06 12:00:00 20.7 23 Nordeste 36 Nordeste 0 -- -- 56
2020-09-06 11:00:00 18.5 28 Nordeste 39 Nordeste 0 -- -- 64
2020-09-06 10:00:00 16.5 27 Este 38 Este 0 -- -- 73
2020-09-06 09:00:00 14.6 23 Nordeste 38 Nordeste 0 -- -- 80
2020-09-06 08:00:00 13.8 24 Nordeste 39 Nordeste 0 -- -- 83
2020-09-06 07:00:00 13.9 24 Nordeste 37 Nordeste 0 -- -- 82
2020-09-06 06:00:00 14.4 21 Nordeste 41 Este 0 -- -- 80
2020-09-06 05:00:00 14.6 22 Nordeste 37 Nordeste 0 -- -- 80
2020-09-06 04:00:00 15 24 Nordeste 43 Nordeste 0 -- -- 81
2020-09-06 03:00:00 15.4 28 Nordeste 46 Nordeste 0 -- -- 79
2020-09-06 02:00:00 15.9 30 Nordeste 49 Nordeste 0 -- -- 77
2020-09-06 01:00:00 16.6 27 Nordeste 44 Nordeste 0 -- -- 73
2020-09-06 00:00:00 18.1 26 Nordeste 44 Nordeste 0 -- -- 67
2020-09-05 23:00:00 20.8 20 Nordeste 30 Nordeste 0 -- -- 60
2020-09-05 22:00:00 24.1 17 Nordeste 32 Nordeste 0 -- -- 49
2020-09-05 21:00:00 26.7 9 Nordeste 15 Nordeste 0 -- -- 30
2020-09-05 20:00:00 29.3 9 Nordeste 23 Nordeste 0 -- -- 27
2020-09-05 19:00:00 30.4 7 Este 24 Nordeste 0 -- -- 25
2020-09-05 18:00:00 31.6 9 Norte 20 Norte 0 -- -- 25
2020-09-05 17:00:00 30.6 8 Norte 25 Nordeste 0 -- -- 27
2020-09-05 16:00:00 31.2 12 Nordeste 27 Norte 0 -- -- 27
2020-09-05 15:00:00 30.6 10 Norte 23 Nordeste 0 -- -- 30
2020-09-05 14:00:00 29.1 11 Nordeste 26 Este 0 -- -- 34
2020-09-05 13:00:00 27.1 17 Este 26 Nordeste 0 -- -- 36
2020-09-05 12:00:00 25.2 17 Nordeste 26 Este 0 -- -- 40
2020-09-05 11:00:00 22.8 18 Nordeste 28 Nordeste 0 -- -- 45
2020-09-05 10:00:00 21.1 17 Nordeste 22 Este 0 -- -- 49
2020-09-05 09:00:00 18.9 7 Nordeste 10 Nordeste 0 -- -- 55
2020-09-05 08:00:00 17.7 4 Nordeste 8 Nordeste 0 -- -- 55
2020-09-05 07:00:00 18.4 9 Nordeste 13 Nordeste 0 -- -- 53
2020-09-05 06:00:00 19.2 12 Norte 17 Norte 0 -- -- 51
2020-09-05 05:00:00 19.8 13 Norte 15 Norte 0 -- -- 47
2020-09-05 04:00:00 19.3 7 Nordeste 10 Nordeste 0 -- -- 46
2020-09-05 03:00:00 21.2 6 Noroeste 12 Este 0 -- -- 42
2020-09-05 02:00:00 21.3 9 Norte 13 Noroeste 0 -- -- 42
2020-09-05 01:00:00 22 11 Noroeste 18 Noroeste 0 -- -- 40
2020-09-05 00:00:00 22.8 10 Noroeste 21 Oeste 0 -- -- 37
2020-09-04 23:00:00 24.7 14 Oeste 28 Oeste 0 -- -- 31
2020-09-04 22:00:00 25.7 10 Noroeste 14 Noroeste 0 -- -- 28
2020-09-04 21:00:00 27.3 13 Noroeste 21 Noroeste 0 -- -- 26
2020-09-04 20:00:00 30.7 12 Noroeste 22 Oeste 0 -- -- 22
2020-09-04 19:00:00 31.9 14 Oeste 31 Oeste 0 -- -- 21
2020-09-04 18:00:00 32.5 15 Oeste 24 Sudoeste 0 -- -- 20
2020-09-04 17:00:00 32.2 8 Sudoeste 23 Sudoeste 0 -- -- 21
2020-09-04 16:00:00 31.9 13 Oeste 29 Sudoeste 0 -- -- 21
2020-09-04 15:00:00 31.1 14 Sudoeste 31 Oeste 0 -- -- 22
2020-09-04 14:00:00 30.4 13 Sudoeste 22 Sudoeste 0 -- -- 23
2020-09-04 13:00:00 28.6 3 Nordeste 15 Este 0 -- -- 26
2020-09-04 12:00:00 26.5 10 Este 20 Este 0 -- -- 31
2020-09-04 11:00:00 22.6 12 Este 18 Este 0 -- -- 39
2020-09-04 10:00:00 19.1 9 Este 14 Este 0 -- -- 49
2020-09-04 09:00:00 15.8 8 Este 14 Sudeste 0 -- -- 56
2020-09-04 08:00:00 13.4 14 Sudeste 17 Sudeste 0 -- -- 57
2020-09-04 07:00:00 14.7 6 Este 15 Nordeste 0 -- -- 52
2020-09-04 06:00:00 16.8 14 Nordeste 17 Nordeste 0 -- -- 47
2020-09-04 05:00:00 17.4 13 Nordeste 17 Nordeste 0 -- -- 42
2020-09-04 04:00:00 19 12 Nordeste 13 Nordeste 0 -- -- 35
2020-09-04 03:00:00 20.3 6 Este 8 Este 0 -- -- 32
2020-09-04 02:00:00 20.8 6 Este 10 Sudeste 0 -- -- 27
2020-09-04 01:00:00 21.6 4 Este 9 Este 0 -- -- 27
2020-09-04 00:00:00 22.7 9 Sudeste 10 Este 0 -- -- 27
2020-09-03 23:00:00 23.3 9 Este 12 Este 0 -- -- 25
2020-09-03 22:00:00 24.1 9 Este 13 Este 0 -- -- 24
2020-09-03 21:00:00 25.7 8 Este 14 Este 0 -- -- 25
2020-09-03 20:00:00 29.6 7 Este 18 Sudeste 0 -- -- 21
2020-09-03 19:00:00 30.9 7 Sudeste 22 Sur 0 -- -- 20
2020-09-03 18:00:00 30.3 6 Nordeste 23 Sudeste 0 -- -- 22
2020-09-03 17:00:00 30.6 9 Sur 22 Sudeste 0 -- -- 23
2020-09-03 16:00:00 29.3 12 Este 21 Este 0 -- -- 25
2020-09-03 15:00:00 28.8 9 Sudeste 25 Sudeste 0 -- -- 26
2020-09-03 14:00:00 27.4 11 Sudeste 22 Sudeste 0 -- -- 30
2020-09-03 13:00:00 25.6 12 Sudeste 22 Este 0 -- -- 35
2020-09-03 12:00:00 22.9 15 Este 25 Sudeste 0 -- -- 41
2020-09-03 11:00:00 20.5 16 Este 23 Este 0 -- -- 51
2020-09-03 10:00:00 17.3 12 Este 17 Este 0 -- -- 63
2020-09-03 09:00:00 15.1 9 Este 13 Nordeste 0 -- -- 68
2020-09-03 08:00:00 13.7 13 Nordeste 17 Nordeste 0 -- -- 69
2020-09-03 07:00:00 13.9 14 Nordeste 18 Nordeste 0 -- -- 68
2020-09-03 06:00:00 14 12 Nordeste 17 Nordeste 0 -- -- 66
2020-09-03 05:00:00 14.2 11 Nordeste 16 Este 0 -- -- 63
2020-09-03 04:00:00 15 11 Nordeste 16 Nordeste 0 -- -- 58
2020-09-03 03:00:00 16.6 10 Nordeste 18 Nordeste 0 -- -- 52
2020-09-03 02:00:00 18.1 9 Este 12 Este 0 -- -- 45
2020-09-03 01:00:00 18.6 8 Este 13 Este 0 -- -- 43
2020-09-03 00:00:00 19.7 10 Este 13 Este 0 -- -- 41
2020-09-02 23:00:00 20.4 8 Este 11 Este 0 -- -- 38
2020-09-02 22:00:00 21.6 8 Este 9 Este 0 -- -- 34
2020-09-02 21:00:00 23.3 7 Este 15 Este 0 -- -- 32
2020-09-02 20:00:00 26.1 7 Nordeste 17 Este 0 -- -- 30
2020-09-02 19:00:00 28 5 Este 23 Nordeste 0 -- -- 26
2020-09-02 18:00:00 27.8 6 Norte 21 Este 0 -- -- 27
2020-09-02 17:00:00 27.2 8 Nordeste 21 Nordeste 0 -- -- 29
2020-09-02 16:00:00 26.6 11 Sur 17 Sudoeste 0 -- -- 30
2020-09-02 15:00:00 25.3 9 Nordeste 28 Nordeste 0 -- -- 31
2020-09-02 14:00:00 23.8 14 Este 32 Este 0 -- -- 37
2020-09-02 13:00:00 21.5 22 Nordeste 33 Nordeste 0 -- -- 45
2020-09-02 12:00:00 19.8 23 Nordeste 38 Nordeste 0 -- -- 51
2020-09-02 11:00:00 17.1 24 Nordeste 36 Nordeste 0 -- -- 60
2020-09-02 10:00:00 15 27 Nordeste 39 Nordeste 0 -- -- 69
2020-09-02 09:00:00 13.2 22 Nordeste 34 Nordeste 0 -- -- 76
2020-09-02 08:00:00 11.9 18 Nordeste 30 Este 0 -- -- 81
2020-09-02 07:00:00 12.1 21 Nordeste 33 Nordeste 0 -- -- 79
2020-09-02 06:00:00 12.5 22 Nordeste 40 Nordeste 0 -- -- 77
2020-09-02 05:00:00 13 24 Nordeste 40 Nordeste 0 -- -- 76
2020-09-02 04:00:00 13.6 28 Nordeste 39 Nordeste 0 -- -- 73
2020-09-02 03:00:00 14.1 22 Nordeste 34 Nordeste 0 -- -- 69
2020-09-02 02:00:00 15 21 Nordeste 39 Nordeste 0 -- -- 65
2020-09-02 01:00:00 16.1 28 Nordeste 44 Nordeste 0 -- -- 61
2020-09-02 00:00:00 18.2 22 Nordeste 34 Nordeste 0 -- -- 51
2020-09-01 23:00:00 19.5 8 Nordeste 11 Nordeste 0 -- -- 38
2020-09-01 22:00:00 20.5 6 Nordeste 15 Nordeste 0 -- -- 35
2020-09-01 21:00:00 22.3 8 Nordeste 17 Nordeste 0 -- -- 30
2020-09-01 20:00:00 25.2 9 Nordeste 13 Nordeste 0 -- -- 27
2020-09-01 19:00:00 27.1 12 Oeste 21 Oeste 0 -- -- 26
2020-09-01 18:00:00 27.8 8 Oeste 21 Nordeste 0 -- -- 26
2020-09-01 17:00:00 27.1 6 Noroeste 19 Sudoeste 0 -- -- 25
2020-09-01 16:00:00 26.1 11 Oeste 22 Oeste 0 -- -- 26
2020-09-01 15:00:00 25.4 9 Nordeste 21 Norte 0 -- -- 21
2020-09-01 14:00:00 24.8 4 Noroeste 21 Sur 0 -- -- 25
2020-09-01 13:00:00 24.1 5 Oeste 13 Sudoeste 0 -- -- 27
2020-09-01 12:00:00 21.8 8 Sudoeste 14 Sudoeste 0 -- -- 35
2020-09-01 11:00:00 19.7 4 Nordeste 12 Este 0 -- -- 41
2020-09-01 10:00:00 15.9 7 Nordeste 10 Nordeste 0 -- -- 52
2020-09-01 09:00:00 13.9 6 Nordeste 9 Nordeste 0 -- -- 53
2020-09-01 08:00:00 14 5 Nordeste 10 Norte 0 -- -- 49
2020-09-01 07:00:00 14.5 5 Sudeste 9 Sudeste 0 -- -- 45
2020-09-01 06:00:00 14.3 3 Este 8 Este 0 -- -- 43
2020-09-01 05:00:00 15.1 2 Norte 9 Oeste 0 -- -- 41
2020-09-01 04:00:00 15.1 4 Sudoeste 5 Sur 0 -- -- 42
2020-09-01 03:00:00 16.1 4 Norte 6 Noroeste 0 -- -- 40
2020-09-01 02:00:00 16.3 2 Norte 13 Este 0 -- -- 39
2020-09-01 01:00:00 16.1 8 Este 13 Este 0 -- -- 38
2020-09-01 00:00:00 17.9 8 Noroeste 13 Oeste 0 -- -- 32
2020-08-31 23:00:00 18.3 9 Oeste 10 Oeste 0 -- -- 34
2020-08-31 22:00:00 19 9 Noroeste 13 Noroeste 0 -- -- 32
2020-08-31 21:00:00 19.8 12 Noroeste 17 Oeste 0 -- -- 29
2020-08-31 20:00:00 22.8 13 Oeste 25 Oeste 0 -- -- 25
2020-08-31 19:00:00 24.5 11 Oeste 26 Oeste 0 -- -- 23
2020-08-31 18:00:00 24.5 11 Oeste 30 Sudoeste 0 -- -- 23
2020-08-31 17:00:00 24.1 13 Oeste 27 Sudoeste 0 -- -- 25
2020-08-31 16:00:00 23.3 12 Oeste 24 Oeste 0 -- -- 26
2020-08-31 15:00:00 22.1 11 Oeste 26 Sudoeste 0 -- -- 30
2020-08-31 14:00:00 21.1 5 Sudoeste 24 Sur 0 -- -- 30
2020-08-31 13:00:00 19.6 7 Sudeste 17 Este 0 -- -- 37
2020-08-31 12:00:00 17.2 10 Este 23 Este 0 -- -- 47
2020-08-31 11:00:00 14.3 13 Nordeste 24 Nordeste 0 -- -- 59
2020-08-31 10:00:00 12.2 15 Nordeste 26 Este 0 -- -- 67
2020-08-31 09:00:00 9.4 15 Nordeste 21 Nordeste 0 -- -- 78
2020-08-31 08:00:00 7.4 16 Nordeste 25 Nordeste 0 -- -- 85
2020-08-31 07:00:00 8 18 Nordeste 23 Nordeste 0 -- -- 83
2020-08-31 06:00:00 8.7 14 Nordeste 25 Nordeste 0 -- -- 80
2020-08-31 05:00:00 9 17 Nordeste 23 Nordeste 0 -- -- 79
2020-08-31 04:00:00 9.7 16 Nordeste 23 Nordeste 0 -- -- 74
2020-08-31 03:00:00 10.6 14 Nordeste 20 Nordeste 0 -- -- 67
2020-08-31 02:00:00 11.1 10 Nordeste 19 Este 0 -- -- 61
2020-08-31 01:00:00 12.2 11 Este 22 Este 0 -- -- 52
2020-08-31 00:00:00 13.9 7 Este 10 Este 0 -- -- 43
2020-08-30 23:00:00 14.3 8 Este 12 Este 0 -- -- 42
2020-08-30 22:00:00 14.8 8 Este 12 Este 0 -- -- 40
2020-08-30 21:00:00 16.8 7 Este 21 Este 0 -- -- 37
2020-08-30 20:00:00 19.1 11 Nordeste 24 Nordeste 0 -- -- 33
2020-08-30 19:00:00 20.2 15 Este 28 Nordeste 0 -- -- 33
2020-08-30 18:00:00 20.2 12 Este 37 Este 0 -- -- 33
2020-08-30 17:00:00 19 7 Sudeste 25 Norte 0 -- -- 34
2020-08-30 16:00:00 18.9 7 Este 25 Este 0 -- -- 36
2020-08-30 15:00:00 18.1 8 Nordeste 32 Nordeste 0 -- -- 40
2020-08-30 14:00:00 16.9 12 Nordeste 27 Nordeste 0 -- -- 45
2020-08-30 13:00:00 17.4 16 Nordeste 29 Nordeste 0 -- -- 44
2020-08-30 12:00:00 15.1 15 Nordeste 25 Nordeste 0 -- -- 50
2020-08-30 11:00:00 15.2 13 Nordeste 22 Nordeste 0 -- -- 51
2020-08-30 10:00:00 12.8 12 Este 17 Este 0 -- -- 62
2020-08-30 09:00:00 10.5 6 Este 10 Este 0 -- -- 72
2020-08-30 08:00:00 7.7 6 Este 14 Este 0 -- -- 79
2020-08-30 07:00:00 8.3 9 Este 17 Este 0 -- -- 77
2020-08-30 06:00:00 8.3 9 Este 14 Este 0 -- -- 80
2020-08-30 05:00:00 8.3 10 Este 15 Este 0 -- -- 80
2020-08-30 04:00:00 8.3 8 Este 18 Nordeste 0 -- -- 76
2020-08-30 03:00:00 9.7 14 Nordeste 19 Nordeste 0 -- -- 72
2020-08-30 02:00:00 10.6 13 Este 26 Nordeste 0 -- -- 68
2020-08-30 01:00:00 12.1 15 Nordeste 27 Nordeste 0 -- -- 63
2020-08-30 00:00:00 13.2 12 Nordeste 30 Norte 0 -- -- 59
2020-08-29 23:00:00 13.8 19 Nordeste 31 Nordeste 0 -- -- 56
2020-08-29 22:00:00 14.8 15 Nordeste 35 Nordeste 0 -- -- 53
2020-08-29 21:00:00 16.3 22 Nordeste 33 Norte 0 -- -- 49
2020-08-29 20:00:00 18.2 25 Nordeste 35 Norte 0 -- -- 44
2020-08-29 19:00:00 19.2 21 Norte 35 Norte 0 -- -- 42
2020-08-29 18:00:00 20.8 17 Norte 30 Nordeste 0 -- -- 35
2020-08-29 17:00:00 20.7 13 Norte 42 Nordeste 0 -- -- 37
2020-08-29 16:00:00 20.7 23 Nordeste 47 Norte 0 -- -- 37
2020-08-29 15:00:00 19 20 Norte 35 Nordeste 0 -- -- 39
2020-08-29 14:00:00 19.6 19 Nordeste 31 Norte 0 -- -- 40
2020-08-29 13:00:00 18.8 14 Norte 31 Noroeste 0 -- -- 43
2020-08-29 12:00:00 17.9 15 Norte 32 Norte 0 -- -- 44
2020-08-29 11:00:00 15.9 18 Norte 28 Norte 0 -- -- 49
2020-08-29 10:00:00 12.6 11 Noroeste 18 Noroeste 0 -- -- 67
2020-08-29 09:00:00 8.9 9 Oeste 14 Oeste 0 -- -- 80
2020-08-29 08:00:00 8.3 9 Oeste 15 Noroeste 0 -- -- 81
2020-08-29 07:00:00 8.7 6 Oeste 13 Oeste 0 -- -- 74
2020-08-29 06:00:00 9.1 9 Norte 10 Noroeste 0 -- -- 73
2020-08-29 05:00:00 9.3 5 Noroeste 7 Noroeste 0 -- -- 72
2020-08-29 04:00:00 10 5 Noroeste 6 Noroeste 0 -- -- 68
2020-08-29 03:00:00 10.4 2 Este 10 Noroeste 0 -- -- 63
2020-08-29 02:00:00 10.8 8 Noroeste 19 Noroeste 0 -- -- 62
2020-08-29 01:00:00 11.9 12 Noroeste 24 Noroeste 0 -- -- 58
2020-08-29 00:00:00 12.8 12 Noroeste 28 Noroeste 0 -- -- 58
2020-08-28 23:00:00 14.6 21 Noroeste 31 Noroeste 0 -- -- 52
2020-08-28 22:00:00 16 18 Noroeste 33 Oeste 0 -- -- 50
2020-08-28 21:00:00 17.8 23 Oeste 37 Oeste 0 -- -- 43
2020-08-28 20:00:00 20 25 Oeste 48 Oeste 0 -- -- 40
2020-08-28 19:00:00 21.8 32 Noroeste 45 Noroeste 0 -- -- 37
2020-08-28 18:00:00 23.5 33 Oeste 47 Oeste 0 -- -- 33
2020-08-28 17:00:00 23.9 33 Oeste 47 Oeste 0 -- -- 30
2020-08-28 16:00:00 24.4 31 Oeste 44 Sudoeste 0 -- -- 27
2020-08-28 15:00:00 23.9 28 Oeste 39 Oeste 0 -- -- 29
2020-08-28 14:00:00 23.2 22 Oeste 39 Oeste 0 -- -- 31
2020-08-28 13:00:00 22 21 Oeste 40 Oeste 0 -- -- 43
2020-08-28 12:00:00 20.7 25 Oeste 36 Oeste 0 -- -- 50
2020-08-28 11:00:00 19.3 21 Oeste 33 Oeste 0 -- -- 60
2020-08-28 10:00:00 17.8 17 Oeste 27 Oeste 0 -- -- 68
2020-08-28 09:00:00 15.8 8 Sudoeste 22 Oeste 0 -- -- 89
2020-08-28 08:00:00 14.7 15 Oeste 25 Oeste 0 -- -- 91
2020-08-28 07:00:00 15.3 16 Oeste 24 Oeste 0 -- -- 88
2020-08-28 06:00:00 16 19 Oeste 27 Oeste 0 -- -- 85
2020-08-28 05:00:00 17 16 Oeste 24 Oeste 0 -- -- 81
2020-08-28 04:00:00 17.9 12 Oeste 24 Oeste 0 -- -- 76
2020-08-28 03:00:00 18.7 19 Oeste 27 Oeste 0 -- -- 75
2020-08-28 02:00:00 19.5 22 Oeste 33 Oeste 0 -- -- 71
2020-08-28 01:00:00 19.8 24 Sudoeste 30 Oeste 0 -- -- 65
2020-08-28 00:00:00 21.1 18 Oeste 24 Oeste 0 -- -- 61
2020-08-27 23:00:00 22.9 15 Oeste 22 Oeste 0 -- -- 57
2020-08-27 22:00:00 24.4 19 Oeste 30 Oeste 0 -- -- 52
2020-08-27 21:00:00 26.5 18 Oeste 34 Oeste 0 -- -- 47
2020-08-27 20:00:00 29.8 24 Oeste 36 Oeste 0 -- -- 36
2020-08-27 19:00:00 31.3 26 Oeste 37 Oeste 0 -- -- 31
2020-08-27 18:00:00 31.9 24 Oeste 36 Oeste 0 -- -- 31
2020-08-27 17:00:00 31.9 23 Oeste 35 Oeste 0 -- -- 26
2020-08-27 16:00:00 31.6 17 Oeste 30 Oeste 0 -- -- 26
2020-08-27 15:00:00 30.9 16 Oeste 32 Oeste 0 -- -- 27
2020-08-27 14:00:00 29.7 15 Sudoeste 23 Sudoeste 0 -- -- 36
2020-08-27 13:00:00 28.1 13 Sudoeste 21 Sudoeste 0 -- -- 45
2020-08-27 12:00:00 26.9 4 Sudeste 20 Este 0 -- -- 53
2020-08-27 11:00:00 24.3 10 Sudeste 16 Este 0 -- -- 63
2020-08-27 10:00:00 21.6 5 Sudoeste 9 Sudoeste 0 -- -- 74
2020-08-27 09:00:00 19.5 3 Nordeste 7 Nordeste 0 -- -- 77
2020-08-27 08:00:00 18 4 Sudoeste 7 Sudoeste 0 -- -- 80
2020-08-27 07:00:00 18.3 4 Sur 8 Este 0 -- -- 75
2020-08-27 06:00:00 18.7 5 Oeste 7 Este 0 -- -- 74
2020-08-27 05:00:00 19.7 2 Sur 6 Sur 0 -- -- 69
2020-08-27 04:00:00 20.6 4 Sudoeste 11 Oeste 0 -- -- 65
2020-08-27 03:00:00 20.5 7 Oeste 10 Sudoeste 0 -- -- 65
2020-08-27 02:00:00 21.2 6 Sudoeste 13 Noroeste 0 -- -- 61
2020-08-27 01:00:00 23 13 Noroeste 15 Noroeste 0 -- -- 57
2020-08-27 00:00:00 23.5 10 Norte 17 Noroeste 0 -- -- 54
2020-08-26 23:00:00 25.7 13 Noroeste 20 Noroeste 0 -- -- 48
2020-08-26 22:00:00 26.6 16 Oeste 19 Oeste 0 -- -- 45
2020-08-26 21:00:00 28.8 13 Oeste 21 Oeste 0 -- -- 40
2020-08-26 20:00:00 31.2 19 Oeste 28 Oeste 0 -- -- 34
2020-08-26 19:00:00 32.4 15 Noroeste 35 Oeste 0 -- -- 28
2020-08-26 18:00:00 33 15 Sudoeste 29 Oeste 0 -- -- 23
2020-08-26 17:00:00 32.5 14 Oeste 28 Oeste 0 -- -- 22
2020-08-26 16:00:00 32 13 Sudoeste 29 Oeste 0 -- -- 26
2020-08-26 15:00:00 31.3 10 Sudoeste 27 Sudoeste 0 -- -- 28
2020-08-26 14:00:00 29.8 4 Nordeste 16 Sudoeste 0 -- -- 37
2020-08-26 13:00:00 27.8 5 Nordeste 14 Este 0 -- -- 41
2020-08-26 12:00:00 25.7 5 Nordeste 16 Este 0 -- -- 50
2020-08-26 11:00:00 23.1 9 Este 18 Nordeste 0 -- -- 57
2020-08-26 10:00:00 20.1 15 Nordeste 21 Nordeste 0 -- -- 67
2020-08-26 09:00:00 17.6 7 Nordeste 11 Nordeste 0 -- -- 75
2020-08-26 08:00:00 16.1 12 Nordeste 18 Nordeste 0 -- -- 78
2020-08-26 07:00:00 16 14 Norte 17 Nordeste 0 -- -- 77
2020-08-26 06:00:00 17 13 Nordeste 13 Nordeste 0 -- -- 71
2020-08-26 05:00:00 17.9 6 Nordeste 10 Este 0 -- -- 65
2020-08-26 04:00:00 19.7 3 Sudeste 12 Este 0 -- -- 57
2020-08-26 03:00:00 19 8 Este 11 Este 0 -- -- 59
2020-08-26 02:00:00 21 2 Sudoeste 7 Norte 0 -- -- 52
2020-08-26 01:00:00 21.8 5 Norte 10 Norte 0 -- -- 51
2020-08-26 00:00:00 22.2 8 Norte 19 Norte 0 -- -- 51
2020-08-25 23:00:00 23.6 14 Noroeste 26 Noroeste 0 -- -- 47
2020-08-25 22:00:00 25.2 15 Noroeste 21 Oeste 0 -- -- 42
2020-08-25 21:00:00 27.5 16 Oeste 27 Oeste 0 -- -- 37
2020-08-25 20:00:00 30.5 19 Oeste 31 Oeste 0 -- -- 30
2020-08-25 19:00:00 31.9 19 Oeste 33 Oeste 0 -- -- 19
2020-08-25 18:00:00 32.5 18 Oeste 32 Oeste 0 -- -- 17
2020-08-25 17:00:00 32.1 19 Oeste 34 Oeste 0 -- -- 17
2020-08-25 16:00:00 31.9 20 Oeste 35 Oeste 0 -- -- 21
2020-08-25 15:00:00 30.6 20 Oeste 35 Oeste 0 -- -- 22
2020-08-25 14:00:00 30 21 Sudoeste 32 Oeste 0 -- -- 26
2020-08-25 13:00:00 28.3 12 Oeste 21 Oeste 0 -- -- 30
2020-08-25 12:00:00 26.5 10 Oeste 18 Sudoeste 0 -- -- 30
2020-08-25 11:00:00 24 10 Oeste 14 Oeste 0 -- -- 38
2020-08-25 10:00:00 21 4 Oeste 6 Oeste 0 -- -- 57
2020-08-25 09:00:00 19.3 2 Noroeste 5 Noroeste 0 -- -- 62
2020-08-25 08:00:00 17.5 3 Oeste 8 Oeste 0 -- -- 62
2020-08-25 07:00:00 17.8 8 Oeste 15 Oeste 0 -- -- 61
2020-08-25 06:00:00 18.4 12 Oeste 17 Oeste 0 -- -- 56
2020-08-25 05:00:00 19.1 14 Oeste 16 Oeste 0 -- -- 53
2020-08-25 04:00:00 20.2 10 Oeste 12 Oeste 0 -- -- 49
2020-08-25 03:00:00 21.6 3 Sudoeste 6 Sudoeste 0 -- -- 45
2020-08-25 02:00:00 21.6 4 Sur 5 Sur 0 -- -- 45
2020-08-25 01:00:00 21.6 4 Sudeste 6 Este 0 -- -- 45
2020-08-25 00:00:00 22.1 6 Nordeste -- -- 0 -- -- 46
2020-08-24 23:00:00 23.3 9 Noroeste 10 Noroeste 0 -- -- 43
2020-08-24 22:00:00 25 8 Norte 11 Noroeste 0 -- -- 37
2020-08-24 21:00:00 26.9 7 Norte 12 Noroeste 0 -- -- 33
2020-08-24 20:00:00 29.8 6 Noroeste 11 Sur 0 -- -- 28
2020-08-24 19:00:00 30.9 9 Sur 14 Sur 0 -- -- 27
2020-08-24 18:00:00 30.2 5 Noroeste 23 Noroeste 0 -- -- 27
2020-08-24 17:00:00 29.6 5 Noroeste 19 Nordeste 0 -- -- 30
2020-08-24 16:00:00 28.3 9 Nordeste 21 Sudeste 0 -- -- 33
2020-08-24 15:00:00 26.8 11 Nordeste 24 Nordeste 0 -- -- 38
2020-08-24 14:00:00 25.8 13 Nordeste 27 Este 0 -- -- 42
2020-08-24 13:00:00 24.1 15 Nordeste 26 Nordeste 0 -- -- 45
2020-08-24 12:00:00 21.6 16 Nordeste 27 Este 0 -- -- 54
2020-08-24 11:00:00 19.1 19 Este 31 Nordeste 0 -- -- 62
2020-08-24 10:00:00 16.6 23 Nordeste 31 Nordeste 0 -- -- 72
2020-08-24 09:00:00 14.9 17 Nordeste 30 Nordeste 0 -- -- 80
2020-08-24 08:00:00 13.3 18 Nordeste 26 Nordeste 0 -- -- 86
2020-08-24 07:00:00 13.5 19 Nordeste 31 Nordeste 0 -- -- 86
2020-08-24 06:00:00 13.8 22 Nordeste 31 Nordeste 0 -- -- 86
2020-08-24 05:00:00 14.5 21 Nordeste 30 Nordeste 0 -- -- 83
2020-08-24 04:00:00 15.6 22 Nordeste 31 Nordeste 0 -- -- 79
2020-08-24 03:00:00 17.1 22 Nordeste 30 Nordeste 0 -- -- 70
2020-08-24 02:00:00 18.5 20 Nordeste 30 Nordeste 0 -- -- 59
2020-08-24 01:00:00 19.9 9 Nordeste 12 Nordeste 0 -- -- 48
2020-08-24 00:00:00 20.8 5 Nordeste 10 Nordeste 0 -- -- 45
2020-08-23 23:00:00 21.3 6 Nordeste 14 Nordeste 0 -- -- 45
2020-08-23 22:00:00 22.3 9 Nordeste 14 Nordeste 0 -- -- 42
2020-08-23 21:00:00 26.3 5 Este 9 Sudoeste 0 -- -- 35
2020-08-23 20:00:00 28.6 3 Oeste 13 Noroeste 0 -- -- 31
2020-08-23 19:00:00 28.9 4 Nordeste 15 Nordeste 0 -- -- 29
2020-08-23 18:00:00 28.3 10 Norte 17 Norte 0 -- -- 28
2020-08-23 17:00:00 27.6 10 Norte 19 Nordeste 0 -- -- 28
2020-08-23 16:00:00 27.7 8 Norte 23 Noroeste 0 -- -- 32
2020-08-23 15:00:00 26.6 9 Nordeste 23 Nordeste 0 -- -- 38
2020-08-23 14:00:00 24.7 9 Nordeste 24 Este 0 -- -- 42
2020-08-23 13:00:00 23.2 13 Nordeste 28 Nordeste 0 -- -- 47
2020-08-23 12:00:00 21.5 15 Nordeste 28 Nordeste 0 -- -- 59
2020-08-23 11:00:00 18.9 16 Nordeste 27 Este 0 -- -- 69
2020-08-23 10:00:00 16.8 18 Nordeste 28 Este 0 -- -- 77
2020-08-23 09:00:00 14.4 17 Nordeste 24 Nordeste 0 -- -- 88
2020-08-23 08:00:00 12.7 15 Nordeste 22 Nordeste 0 -- -- 94
2020-08-23 07:00:00 12.8 13 Nordeste 21 Nordeste 0 -- -- 93
2020-08-23 06:00:00 13.1 13 Nordeste 22 Nordeste 0 -- -- 92
2020-08-23 05:00:00 13.9 12 Nordeste 24 Nordeste 0 -- -- 88
2020-08-23 04:00:00 14.5 13 Este 21 Nordeste 0 -- -- 82
2020-08-23 03:00:00 15.7 11 Nordeste 23 Este 0 -- -- 64
2020-08-23 02:00:00 17 9 Norte 12 Norte 0 -- -- 55
2020-08-23 01:00:00 17.9 9 Norte 13 Noroeste 0 -- -- 49
2020-08-23 00:00:00 18.8 10 Noroeste 16 Noroeste 0 -- -- 46
2020-08-22 23:00:00 19.9 14 Oeste 16 Oeste 0 -- -- 41
2020-08-22 22:00:00 20.8 10 Oeste 15 Oeste 0 -- -- 37
2020-08-22 21:00:00 23.8 12 Oeste 22 Oeste 0 -- -- 30
2020-08-22 20:00:00 26.3 13 Oeste 23 Oeste 0 -- -- 24
2020-08-22 19:00:00 27.2 13 Oeste 26 Sudoeste 0 -- -- 26
2020-08-22 18:00:00 27.3 12 Sudoeste 30 Sudoeste 0 -- -- 23
2020-08-22 17:00:00 26.9 12 Oeste 27 Sudoeste 0 -- -- 24
2020-08-22 16:00:00 25.9 8 Oeste 23 Oeste 0 -- -- 24
2020-08-22 15:00:00 24.8 9 Oeste 21 Sudoeste 0 -- -- 30
2020-08-22 14:00:00 23.6 9 Oeste 20 Oeste 0 -- -- 38
2020-08-22 13:00:00 22.5 7 Sur 13 Sur 0 -- -- 49
2020-08-22 12:00:00 20.1 4 Sudeste 11 Sudeste 0 -- -- 57
2020-08-22 11:00:00 17.8 3 Sudoeste 6 Sur 0 -- -- 69
2020-08-22 10:00:00 15.7 0 Calma 5 Oeste 0 -- -- 84
2020-08-22 09:00:00 13.2 3 Noroeste 9 Oeste 0 -- -- 91
2020-08-22 08:00:00 11.9 4 Sudoeste 10 Oeste 0 -- -- 93
2020-08-22 07:00:00 12.1 6 Sudoeste 9 Sudoeste 0 -- -- 92
2020-08-22 06:00:00 12.5 8 Sudoeste 9 Sudoeste 0 -- -- 90
2020-08-22 05:00:00 12.8 8 Oeste 9 Oeste 0 -- -- 88
2020-08-22 04:00:00 13 7 Sudoeste 10 Oeste 0 -- -- 86
2020-08-22 03:00:00 13.3 9 Oeste 12 Oeste 0 -- -- 85
2020-08-22 02:00:00 14.5 12 Oeste 22 Oeste 0 -- -- 81
2020-08-22 01:00:00 15.3 15 Noroeste 21 Noroeste 0 -- -- 78
2020-08-22 00:00:00 16.1 16 Noroeste 22 Oeste 0 -- -- 77
2020-08-21 23:00:00 17.4 15 Noroeste 22 Oeste 0 -- -- 68
2020-08-21 22:00:00 18.6 16 Oeste 20 Oeste 0 -- -- 58
2020-08-21 21:00:00 20.9 17 Oeste 31 Oeste 0 -- -- 52
2020-08-21 20:00:00 22.8 22 Oeste 36 Oeste 0 -- -- 48
2020-08-21 19:00:00 23.6 21 Oeste 36 Sudoeste 0 -- -- 45
2020-08-21 18:00:00 23.4 21 Oeste 44 Oeste 0 -- -- 45
2020-08-21 17:00:00 23.5 25 Oeste 42 Oeste 0 -- -- 38
2020-08-21 16:00:00 22.7 22 Sudoeste 40 Sudoeste 0 -- -- 38
2020-08-21 15:00:00 21.5 24 Oeste 41 Sudoeste 0 -- -- 55
2020-08-21 14:00:00 19.4 19 Sudoeste 31 Oeste 0 -- -- 71
2020-08-21 13:00:00 18 18 Oeste 28 Sudoeste 0 -- -- 77
2020-08-21 12:00:00 17 15 Oeste 22 Oeste 0 -- -- 87
2020-08-21 11:00:00 16 12 Oeste 17 Oeste 0 -- -- 90
2020-08-21 10:00:00 16.1 10 Oeste 15 Oeste 0 -- -- 92
2020-08-21 09:00:00 15.6 8 Sudoeste 10 Oeste 0 -- -- 94
2020-08-21 08:00:00 15.3 8 Oeste 12 Oeste 0 -- -- 95
2020-08-21 07:00:00 15.4 9 Oeste 14 Oeste 0 -- -- 94
2020-08-21 06:00:00 15.5 11 Oeste 16 Oeste 0 -- -- 94
2020-08-21 05:00:00 15.8 10 Oeste 16 Sudoeste 0 -- -- 95
2020-08-21 04:00:00 16 13 Sudoeste 17 Sudoeste 0 -- -- 94
2020-08-21 03:00:00 16.4 10 Sudoeste 15 Sudoeste 0 -- -- 95
2020-08-21 02:00:00 16.4 12 Sudoeste 18 Oeste 0 -- -- 95
2020-08-21 01:00:00 16.4 13 Oeste 21 Sudoeste 0 -- -- 95
2020-08-21 00:00:00 16.3 19 Sudoeste 23 Sudoeste 0 -- -- 95
2020-08-20 23:00:00 16.3 17 Sudoeste 31 Oeste 0.4 -- -- 97
2020-08-20 22:00:00 16 23 Oeste 40 Oeste 4.6 -- -- 97
2020-08-20 21:00:00 16.5 28 Oeste 41 Oeste 4 -- -- 95
2020-08-20 20:00:00 18.2 24 Oeste 48 Oeste 1.6 -- -- 95
2020-08-20 19:00:00 21.7 26 Oeste 51 Sudoeste 0 -- -- 82
2020-08-20 18:00:00 26.1 36 Sudoeste 59 Sudoeste 0 -- -- 55
2020-08-20 17:00:00 26.9 37 Sudoeste 54 Sudoeste 0 -- -- 52
2020-08-20 16:00:00 26.4 37 Sudoeste 51 Sudoeste 0 -- -- 54
2020-08-20 15:00:00 26.2 33 Sudoeste 47 Sudoeste 0 -- -- 56
2020-08-20 14:00:00 24.8 21 Sudoeste 38 Sudoeste 0 -- -- 60
2020-08-20 13:00:00 24.2 29 Sudoeste 41 Sudoeste 0 -- -- 61
2020-08-20 12:00:00 22.8 23 Sudoeste 41 Sudoeste 0 -- -- 66
2020-08-20 11:00:00 20.4 22 Sudoeste 34 Sudoeste 0 -- -- 74
2020-08-20 10:00:00 19.5 21 Sudoeste 31 Sudoeste 0 -- -- 73
2020-08-20 09:00:00 17.9 12 Sudoeste 18 Sudoeste 0 -- -- 83
2020-08-20 08:00:00 17 15 Sudoeste 24 Sudoeste 0 -- -- 87
2020-08-20 07:00:00 16.4 20 Sudoeste 27 Sudoeste 0 -- -- 90
2020-08-20 06:00:00 16 18 Sudoeste 21 Sudoeste 0 -- -- 86
2020-08-20 05:00:00 16 17 Sudoeste 21 Sudoeste 0 -- -- 83
2020-08-20 04:00:00 16.8 15 Sudoeste 19 Sudoeste 0 -- -- 74
2020-08-20 03:00:00 16.9 8 Sudoeste 18 Sudoeste 0 -- -- 65
2020-08-20 02:00:00 18.3 14 Sudoeste 23 Sudoeste 0 -- -- 63
2020-08-20 01:00:00 18 17 Sudoeste 21 Sudoeste 0 -- -- 52
2020-08-20 00:00:00 18.9 16 Oeste 20 Oeste 0 -- -- 42
2020-08-19 23:00:00 20.6 18 Oeste 28 Oeste 0 -- -- 37
2020-08-19 22:00:00 22.9 25 Sudoeste 33 Sudoeste 0 -- -- 33
2020-08-19 21:00:00 25.4 27 Oeste 40 Oeste 0 -- -- 31
2020-08-19 20:00:00 28.3 30 Sudoeste 51 Sudoeste 0 -- -- 27
2020-08-19 19:00:00 29.4 35 Sudoeste 53 Sudoeste 0 -- -- 23
2020-08-19 18:00:00 29.5 34 Sudoeste 55 Sudoeste 0 -- -- 21
2020-08-19 17:00:00 29.5 35 Sudoeste 60 Sudoeste 0 -- -- 23
2020-08-19 16:00:00 29.4 36 Sudoeste 58 Sudoeste 0 -- -- 22
2020-08-19 15:00:00 28.5 34 Sudoeste 54 Sudoeste 0 -- -- 23
2020-08-19 14:00:00 27.2 32 Sudoeste 46 Sudoeste 0 -- -- 28
2020-08-19 13:00:00 25.6 26 Sudoeste 35 Sudoeste 0 -- -- 33
2020-08-19 12:00:00 22.9 23 Sudoeste 30 Oeste 0 -- -- 45
2020-08-19 11:00:00 19.6 14 Sudoeste 23 Sudoeste 0 -- -- 63
2020-08-19 10:00:00 16.6 12 Oeste 17 Oeste 0 -- -- 84
2020-08-19 09:00:00 14.4 4 Sudoeste 13 Sudoeste 0 -- -- 95
2020-08-19 08:00:00 12.3 9 Sudoeste 12 Sudoeste 0 -- -- 96
2020-08-19 07:00:00 12.9 7 Sudoeste 13 Sudoeste 0 -- -- 93
2020-08-19 06:00:00 13.4 9 Sudoeste 12 Sudoeste 0 -- -- 91
2020-08-19 05:00:00 13.9 4 Sur 12 Oeste 0 -- -- 85
2020-08-19 04:00:00 14.6 10 Oeste 14 Oeste 0 -- -- 83
2020-08-19 03:00:00 15.2 11 Oeste 13 Sudoeste 0 -- -- 81
2020-08-19 02:00:00 16.2 10 Oeste 19 Oeste 0 -- -- 76
2020-08-19 01:00:00 17.8 18 Oeste 24 Oeste 0 -- -- 70
2020-08-19 00:00:00 18.4 15 Oeste 18 Oeste 0 -- -- 67